sensor_id;sensor_type;location;lat;lon;timestamp;pressure;altitude;pressure_sealevel;temperature;humidity
60061;BME280;45933;51.336;12.612;2022-09-12T00:01:05;100075.41;;;17.46;62.99
60061;BME280;45933;51.336;12.612;2022-09-12T00:03:31;100073.78;;;17.42;63.18
60061;BME280;45933;51.336;12.612;2022-09-12T00:05:57;100065.94;;;17.41;63.10
60061;BME280;45933;51.336;12.612;2022-09-12T00:08:22;100065.97;;;17.39;63.08
60061;BME280;45933;51.336;12.612;2022-09-12T00:10:47;100062.47;;;17.39;62.85
60061;BME280;45933;51.336;12.612;2022-09-12T00:13:13;100064.25;;;17.38;62.94
60061;BME280;45933;51.336;12.612;2022-09-12T00:15:43;100055.47;;;17.38;63.26
60061;BME280;45933;51.336;12.612;2022-09-12T00:18:12;100053.69;;;17.38;62.91
60061;BME280;45933;51.336;12.612;2022-09-12T00:20:43;100060.75;;;17.38;62.77
60061;BME280;45933;51.336;12.612;2022-09-12T00:23:09;100054.78;;;17.33;62.53
60061;BME280;45933;51.336;12.612;2022-09-12T00:25:40;100049.41;;;17.36;62.45
60061;BME280;45933;51.336;12.612;2022-09-12T00:28:05;100047.03;;;17.28;62.26
60061;BME280;45933;51.336;12.612;2022-09-12T00:30:31;100054.97;;;17.27;62.08
60061;BME280;45933;51.336;12.612;2022-09-12T00:32:56;100058.63;;;17.22;62.29
60061;BME280;45933;51.336;12.612;2022-09-12T00:35:21;100048.22;;;17.19;62.21
60061;BME280;45933;51.336;12.612;2022-09-12T00:37:47;100051.84;;;17.15;62.24
60061;BME280;45933;51.336;12.612;2022-09-12T00:40:12;100059.84;;;17.12;62.61
60061;BME280;45933;51.336;12.612;2022-09-12T00:42:38;100063.38;;;17.11;62.77
60061;BME280;45933;51.336;12.612;2022-09-12T00:45:04;100062.59;;;17.09;63.22
60061;BME280;45933;51.336;12.612;2022-09-12T00:47:30;100054.72;;;17.08;63.37
60061;BME280;45933;51.336;12.612;2022-09-12T00:50:03;100054.69;;;17.09;63.21
60061;BME280;45933;51.336;12.612;2022-09-12T00:52:56;100053.72;;;17.12;63.16
60061;BME280;45933;51.336;12.612;2022-09-12T00:55:20;100062.53;;;17.11;63.19
60061;BME280;45933;51.336;12.612;2022-09-12T00:58:00;100050.13;;;17.14;62.86
60061;BME280;45933;51.336;12.612;2022-09-12T01:00:27;100049.50;;;17.06;63.19
60061;BME280;45933;51.336;12.612;2022-09-12T01:02:56;100050.38;;;17.07;63.41
60061;BME280;45933;51.336;12.612;2022-09-12T01:05:23;100044.25;;;17.06;63.25
60061;BME280;45933;51.336;12.612;2022-09-12T01:07:50;100047.72;;;17.07;63.35
60061;BME280;45933;51.336;12.612;2022-09-12T01:10:17;100046.88;;;17.06;63.28
60061;BME280;45933;51.336;12.612;2022-09-12T01:12:44;100038.13;;;17.06;63.18
60061;BME280;45933;51.336;12.612;2022-09-12T01:15:10;100035.47;;;17.06;63.13
60061;BME280;45933;51.336;12.612;2022-09-12T01:18:02;100033.41;;;17.15;62.79
60061;BME280;45933;51.336;12.612;2022-09-12T01:26:21;100027.38;;;17.12;62.82
60061;BME280;45933;51.336;12.612;2022-09-12T01:29:02;100031.63;;;17.16;62.42
60061;BME280;45933;51.336;12.612;2022-09-12T01:31:36;100030.94;;;17.11;62.57
60061;BME280;45933;51.336;12.612;2022-09-12T01:34:24;100035.91;;;17.20;62.06
60061;BME280;45933;51.336;12.612;2022-09-12T01:37:16;100035.19;;;17.15;62.21
60061;BME280;45933;51.336;12.612;2022-09-12T01:40:13;100028.03;;;17.18;61.84
60061;BME280;45933;51.336;12.612;2022-09-12T01:42:55;100031.94;;;17.07;62.23
60061;BME280;45933;51.336;12.612;2022-09-12T01:48:06;100033.91;;;17.00;62.58
60061;BME280;45933;51.336;12.612;2022-09-12T01:50:39;100026.97;;;16.97;62.87
60061;BME280;45933;51.336;12.612;2022-09-12T01:53:25;100029.50;;;17.01;62.53
60061;BME280;45933;51.336;12.612;2022-09-12T01:55:59;100030.50;;;16.96;62.86
60061;BME280;45933;51.336;12.612;2022-09-12T01:58:34;100028.78;;;16.95;62.83
60061;BME280;45933;51.336;12.612;2022-09-12T02:01:11;100029.66;;;16.96;62.80
60061;BME280;45933;51.336;12.612;2022-09-12T02:06:29;100027.94;;;16.95;62.89
60061;BME280;45933;51.336;12.612;2022-09-12T02:09:04;100028.06;;;16.90;63.06
60061;BME280;45933;51.336;12.612;2022-09-12T02:11:33;100022.16;;;16.84;63.14
60061;BME280;45933;51.336;12.612;2022-09-12T02:14:11;100019.41;;;16.87;62.74
60061;BME280;45933;51.336;12.612;2022-09-12T02:16:43;100025.72;;;16.81;63.31
60061;BME280;45933;51.336;12.612;2022-09-12T02:19:19;100030.97;;;16.83;63.17
60061;BME280;45933;51.336;12.612;2022-09-12T02:21:54;100033.63;;;16.81;62.92
60061;BME280;45933;51.336;12.612;2022-09-12T02:24:22;100037.31;;;16.76;63.33
60061;BME280;45933;51.336;12.612;2022-09-12T02:26:53;100032.06;;;16.76;63.49
60061;BME280;45933;51.336;12.612;2022-09-12T02:29:19;100035.72;;;16.70;63.26
60061;BME280;45933;51.336;12.612;2022-09-12T02:31:57;100028.56;;;16.75;63.17
60061;BME280;45933;51.336;12.612;2022-09-12T02:37:24;100035.72;;;16.71;63.10
60061;BME280;45933;51.336;12.612;2022-09-12T02:39:56;100035.97;;;16.62;63.40
60061;BME280;45933;51.336;12.612;2022-09-12T02:42:23;100026.38;;;16.60;63.44
60061;BME280;45933;51.336;12.612;2022-09-12T02:44:50;100027.25;;;16.60;63.77
60061;BME280;45933;51.336;12.612;2022-09-12T02:47:21;100027.28;;;16.59;63.36
60061;BME280;45933;51.336;12.612;2022-09-12T02:49:48;100030.03;;;16.56;63.46
60061;BME280;45933;51.336;12.612;2022-09-12T02:52:14;100019.53;;;16.54;63.49
60061;BME280;45933;51.336;12.612;2022-09-12T02:54:40;100015.28;;;16.50;63.52
60061;BME280;45933;51.336;12.612;2022-09-12T02:57:17;100016.06;;;16.54;62.86
60061;BME280;45933;51.336;12.612;2022-09-12T02:59:45;100013.69;;;16.44;62.86
60061;BME280;45933;51.336;12.612;2022-09-12T03:08:12;100020.88;;;16.39;62.84
60061;BME280;45933;51.336;12.612;2022-09-12T03:16:36;100023.88;;;16.27;63.04
60061;BME280;45933;51.336;12.612;2022-09-12T03:19:15;100020.63;;;16.19;63.30
60061;BME280;45933;51.336;12.612;2022-09-12T03:24:48;100016.16;;;16.21;63.20
60061;BME280;45933;51.336;12.612;2022-09-12T03:27:21;100020.88;;;16.10;64.07
60061;BME280;45933;51.336;12.612;2022-09-12T03:29:50;100013.13;;;16.05;64.07
60061;BME280;45933;51.336;12.612;2022-09-12T03:32:17;100022.78;;;16.05;64.00
60061;BME280;45933;51.336;12.612;2022-09-12T03:34:42;100013.19;;;16.04;64.06
60061;BME280;45933;51.336;12.612;2022-09-12T03:37:07;100024.56;;;16.03;64.12
60061;BME280;45933;51.336;12.612;2022-09-12T03:39:33;100020.22;;;16.02;63.97
60061;BME280;45933;51.336;12.612;2022-09-12T03:41:58;100016.75;;;16.01;63.85
60061;BME280;45933;51.336;12.612;2022-09-12T03:44:24;100018.53;;;16.01;64.06
60061;BME280;45933;51.336;12.612;2022-09-12T03:46:49;100015.88;;;16.01;64.19
60061;BME280;45933;51.336;12.612;2022-09-12T03:49:15;100014.16;;;16.00;64.46
60061;BME280;45933;51.336;12.612;2022-09-12T03:51:42;100014.22;;;15.98;64.48
60061;BME280;45933;51.336;12.612;2022-09-12T03:54:08;100006.41;;;15.95;64.49
60061;BME280;45933;51.336;12.612;2022-09-12T03:56:33;100013.44;;;15.94;64.55
60061;BME280;45933;51.336;12.612;2022-09-12T03:59:04;100010.88;;;15.93;64.54
60061;BME280;45933;51.336;12.612;2022-09-12T04:01:30;100015.38;;;15.88;64.49
60061;BME280;45933;51.336;12.612;2022-09-12T04:03:55;100018.94;;;15.85;64.06
60061;BME280;45933;51.336;12.612;2022-09-12T04:06:21;100015.53;;;15.82;63.76
60061;BME280;45933;51.336;12.612;2022-09-12T04:08:48;100022.66;;;15.78;63.64
60061;BME280;45933;51.336;12.612;2022-09-12T04:11:15;100015.75;;;15.74;63.74
60061;BME280;45933;51.336;12.612;2022-09-12T04:13:42;100012.41;;;15.69;63.92
60061;BME280;45933;51.336;12.612;2022-09-12T04:16:08;100014.25;;;15.65;64.55
60061;BME280;45933;51.336;12.612;2022-09-12T04:18:34;100016.91;;;15.64;64.14
60061;BME280;45933;51.336;12.612;2022-09-12T04:21:11;100010.81;;;15.63;63.77
60061;BME280;45933;51.336;12.612;2022-09-12T04:23:37;100025.00;;;15.56;63.70
60061;BME280;45933;51.336;12.612;2022-09-12T04:26:04;100029.50;;;15.51;63.12
60061;BME280;45933;51.336;12.612;2022-09-12T04:28:31;100030.44;;;15.49;63.62
60061;BME280;45933;51.336;12.612;2022-09-12T04:31:02;100026.91;;;15.50;63.45
60061;BME280;45933;51.336;12.612;2022-09-12T04:33:29;100027.06;;;15.43;63.77
60061;BME280;45933;51.336;12.612;2022-09-12T04:35:54;100023.63;;;15.41;63.60
60061;BME280;45933;51.336;12.612;2022-09-12T04:38:19;100020.16;;;15.39;63.76
60061;BME280;45933;51.336;12.612;2022-09-12T04:40:45;100021.06;;;15.38;64.69
60061;BME280;45933;51.336;12.612;2022-09-12T04:43:10;100022.84;;;15.38;65.20
60061;BME280;45933;51.336;12.612;2022-09-12T04:45:35;100026.31;;;15.38;65.48
60061;BME280;45933;51.336;12.612;2022-09-12T04:48:01;100027.16;;;15.40;65.67
60061;BME280;45933;51.336;12.612;2022-09-12T04:50:26;100027.16;;;15.40;65.97
60061;BME280;45933;51.336;12.612;2022-09-12T04:52:53;100024.50;;;15.42;66.35
60061;BME280;45933;51.336;12.612;2022-09-12T04:55:19;100024.44;;;15.43;66.25
60061;BME280;45933;51.336;12.612;2022-09-12T04:57:45;100025.22;;;15.47;66.28
60061;BME280;45933;51.336;12.612;2022-09-12T05:00:11;100033.91;;;15.51;66.40
60061;BME280;45933;51.336;12.612;2022-09-12T05:02:37;100035.50;;;15.55;66.18
60061;BME280;45933;51.336;12.612;2022-09-12T05:05:03;100031.91;;;15.59;66.09
60061;BME280;45933;51.336;12.612;2022-09-12T05:07:29;100040.59;;;15.62;66.03
60061;BME280;45933;51.336;12.612;2022-09-12T05:09:54;100036.16;;;15.66;65.95
60061;BME280;45933;51.336;12.612;2022-09-12T05:12:19;100033.44;;;15.69;65.85
60061;BME280;45933;51.336;12.612;2022-09-12T05:14:45;100035.13;;;15.72;65.85
60061;BME280;45933;51.336;12.612;2022-09-12T05:17:10;100034.22;;;15.73;65.89
60061;BME280;45933;51.336;12.612;2022-09-12T05:19:35;100042.00;;;15.76;65.92
60061;BME280;45933;51.336;12.612;2022-09-12T05:22:01;100039.34;;;15.77;65.58
60061;BME280;45933;51.336;12.612;2022-09-12T05:24:26;100043.75;;;15.77;65.84
60061;BME280;45933;51.336;12.612;2022-09-12T05:26:52;100043.69;;;15.78;65.59
60061;BME280;45933;51.336;12.612;2022-09-12T05:29:17;100037.53;;;15.79;65.69
60061;BME280;45933;51.336;12.612;2022-09-12T05:31:43;100041.81;;;15.82;65.83
60061;BME280;45933;51.336;12.612;2022-09-12T05:34:08;100044.44;;;15.83;65.42
60061;BME280;45933;51.336;12.612;2022-09-12T05:36:34;100044.44;;;15.83;65.54
60061;BME280;45933;51.336;12.612;2022-09-12T05:39:01;100050.50;;;15.85;65.81
60061;BME280;45933;51.336;12.612;2022-09-12T05:41:29;100049.59;;;15.86;65.78
60061;BME280;45933;51.336;12.612;2022-09-12T05:43:57;100050.44;;;15.87;65.82
60061;BME280;45933;51.336;12.612;2022-09-12T05:46:28;100053.91;;;15.89;65.82
60061;BME280;45933;51.336;12.612;2022-09-12T05:48:55;100063.56;;;15.88;65.85
60061;BME280;45933;51.336;12.612;2022-09-12T05:51:26;100065.16;;;15.94;66.13
60061;BME280;45933;51.336;12.612;2022-09-12T05:53:56;100058.94;;;15.97;66.03
60061;BME280;45933;51.336;12.612;2022-09-12T05:56:24;100064.19;;;15.98;66.08
60061;BME280;45933;51.336;12.612;2022-09-12T05:58:58;100057.03;;;16.03;66.07
60061;BME280;45933;51.336;12.612;2022-09-12T06:01:25;100063.94;;;16.06;66.03
60061;BME280;45933;51.336;12.612;2022-09-12T06:03:54;100070.00;;;16.09;65.83
60061;BME280;45933;51.336;12.612;2022-09-12T06:06:21;100068.16;;;16.11;66.02
60061;BME280;45933;51.336;12.612;2022-09-12T06:08:50;100071.53;;;16.16;66.07
60061;BME280;45933;51.336;12.612;2022-09-12T06:11:18;100074.09;;;16.18;65.75
60061;BME280;45933;51.336;12.612;2022-09-12T06:13:45;100078.47;;;16.19;65.89
60061;BME280;45933;51.336;12.612;2022-09-12T06:16:14;100072.31;;;16.20;65.94
60061;BME280;45933;51.336;12.612;2022-09-12T06:18:40;100079.22;;;16.23;65.82
60061;BME280;45933;51.336;12.612;2022-09-12T06:23:31;100087.06;;;16.26;65.78
60061;BME280;45933;51.336;12.612;2022-09-12T06:25:57;100084.44;;;16.26;65.69
60061;BME280;45933;51.336;12.612;2022-09-12T06:28:23;100085.34;;;16.25;65.59
60061;BME280;45933;51.336;12.612;2022-09-12T06:30:49;100085.34;;;16.25;65.48
60061;BME280;45933;51.336;12.612;2022-09-12T06:33:14;100078.25;;;16.27;66.01
60061;BME280;45933;51.336;12.612;2022-09-12T06:35:40;100079.09;;;16.27;65.63
60061;BME280;45933;51.336;12.612;2022-09-12T06:38:06;100078.19;;;16.28;65.80
60061;BME280;45933;51.336;12.612;2022-09-12T06:40:32;100076.41;;;16.30;65.70
60061;BME280;45933;51.336;12.612;2022-09-12T06:42:57;100077.22;;;16.32;65.89
60061;BME280;45933;51.336;12.612;2022-09-12T06:45:23;100071.81;;;16.37;65.76
60061;BME280;45933;51.336;12.612;2022-09-12T06:47:48;100077.00;;;16.40;65.90
60061;BME280;45933;51.336;12.612;2022-09-12T06:50:14;100081.22;;;16.45;66.02
60061;BME280;45933;51.336;12.612;2022-09-12T06:52:39;100070.59;;;16.48;65.79
60061;BME280;45933;51.336;12.612;2022-09-12T06:55:05;100076.50;;;16.57;66.02
60061;BME280;45933;51.336;12.612;2022-09-12T06:57:30;100075.44;;;16.62;65.89
60061;BME280;45933;51.336;12.612;2022-09-12T07:00:04;100070.84;;;16.69;65.88
60061;BME280;45933;51.336;12.612;2022-09-12T07:02:30;100070.63;;;16.77;65.10
60061;BME280;45933;51.336;12.612;2022-09-12T07:04:55;100067.84;;;16.81;65.28
60061;BME280;45933;51.336;12.612;2022-09-12T07:07:21;100072.06;;;16.87;65.28
60061;BME280;45933;51.336;12.612;2022-09-12T07:09:46;100071.72;;;16.97;65.20
60061;BME280;45933;51.336;12.612;2022-09-12T07:12:13;100080.31;;;17.04;64.99
60061;BME280;45933;51.336;12.612;2022-09-12T07:14:39;100076.47;;;17.14;65.08
60061;BME280;45933;51.336;12.612;2022-09-12T07:17:04;100076.13;;;17.25;65.07
60061;BME280;45933;51.336;12.612;2022-09-12T07:19:30;100073.91;;;17.38;64.54
60061;BME280;45933;51.336;12.612;2022-09-12T07:21:55;100077.88;;;17.51;64.57
60061;BME280;45933;51.336;12.612;2022-09-12T07:24:20;100077.44;;;17.63;64.41
60061;BME280;45933;51.336;12.612;2022-09-12T07:26:46;100075.25;;;17.76;64.04
60061;BME280;45933;51.336;12.612;2022-09-12T07:29:15;100069.50;;;17.90;63.93
60061;BME280;45933;51.336;12.612;2022-09-12T07:31:41;100075.31;;;17.99;63.38
60061;BME280;45933;51.336;12.612;2022-09-12T07:34:07;100077.56;;;18.10;63.25
60061;BME280;45933;51.336;12.612;2022-09-12T07:36:33;100079.00;;;18.19;62.84
60061;BME280;45933;51.336;12.612;2022-09-12T07:38:58;100076.84;;;18.30;62.84
60061;BME280;45933;51.336;12.612;2022-09-12T07:41:26;100079.97;;;18.40;62.89
60061;BME280;45933;51.336;12.612;2022-09-12T07:43:54;100083.19;;;18.48;62.32
60061;BME280;45933;51.336;12.612;2022-09-12T07:46:20;100087.13;;;18.60;62.18
60061;BME280;45933;51.336;12.612;2022-09-12T07:48:50;100084.94;;;18.72;61.71
60061;BME280;45933;51.336;12.612;2022-09-12T07:51:16;100084.63;;;18.80;61.87
60061;BME280;45933;51.336;12.612;2022-09-12T07:53:41;100086.84;;;18.91;62.54
60061;BME280;45933;51.336;12.612;2022-09-12T07:56:11;100089.13;;;19.00;61.41
60061;BME280;45933;51.336;12.612;2022-09-12T07:58:38;100086.97;;;19.10;61.09
60061;BME280;45933;51.336;12.612;2022-09-12T08:01:10;100090.81;;;19.23;60.64
60061;BME280;45933;51.336;12.612;2022-09-12T08:03:40;100084.31;;;19.31;60.82
60061;BME280;45933;51.336;12.612;2022-09-12T08:06:14;100081.06;;;19.45;59.57
60061;BME280;45933;51.336;12.612;2022-09-12T08:08:41;100079.72;;;19.57;59.94
60061;BME280;45933;51.336;12.612;2022-09-12T08:11:09;100084.63;;;19.66;58.55
60061;BME280;45933;51.336;12.612;2022-09-12T08:13:37;100090.38;;;19.76;58.48
60061;BME280;45933;51.336;12.612;2022-09-12T08:16:10;100083.63;;;19.89;58.46
60061;BME280;45933;51.336;12.612;2022-09-12T08:18:36;100083.94;;;20.02;58.81
60061;BME280;45933;51.336;12.612;2022-09-12T08:21:06;100082.69;;;20.10;57.43
60061;BME280;45933;51.336;12.612;2022-09-12T08:23:32;100083.09;;;20.41;58.71
60061;BME280;45933;51.336;12.612;2022-09-12T08:26:00;100086.63;;;20.79;58.42
60061;BME280;45933;51.336;12.612;2022-09-12T08:28:27;100075.31;;;21.29;57.40
60061;BME280;45933;51.336;12.612;2022-09-12T08:30:53;100077.25;;;21.79;55.06
60061;BME280;45933;51.336;12.612;2022-09-12T08:33:19;100080.72;;;22.47;55.61
60061;BME280;45933;51.336;12.612;2022-09-12T08:35:46;100073.19;;;23.03;54.23
60061;BME280;45933;51.336;12.612;2022-09-12T08:38:11;100073.25;;;23.63;52.08
60061;BME280;45933;51.336;12.612;2022-09-12T08:40:48;100079.50;;;24.20;49.65
60061;BME280;45933;51.336;12.612;2022-09-12T08:43:42;100073.34;;;24.90;49.81
60061;BME280;45933;51.336;12.612;2022-09-12T08:46:21;100066.03;;;25.33;47.62
60061;BME280;45933;51.336;12.612;2022-09-12T08:48:47;100062.03;;;25.66;45.67
60061;BME280;45933;51.336;12.612;2022-09-12T08:51:14;100066.59;;;25.91;43.72
60061;BME280;45933;51.336;12.612;2022-09-12T08:53:42;100064.13;;;26.13;43.50
60061;BME280;45933;51.336;12.612;2022-09-12T08:56:09;100064.63;;;26.31;43.53
60061;BME280;45933;51.336;12.612;2022-09-12T08:58:41;100065.81;;;26.52;43.99
60061;BME280;45933;51.336;12.612;2022-09-12T09:17:41;100067.00;;;25.32;43.07
60061;BME280;45933;51.336;12.612;2022-09-12T09:20:15;100059.47;;;24.97;43.20
60061;BME280;45933;51.336;12.612;2022-09-12T09:23:15;100062.84;;;24.87;44.48
60061;BME280;45933;51.336;12.612;2022-09-12T09:26:00;100062.44;;;24.51;44.14
60061;BME280;45933;51.336;12.612;2022-09-12T09:28:40;100056.63;;;24.31;45.50
60061;BME280;45933;51.336;12.612;2022-09-12T09:31:18;100054.84;;;24.17;45.47
60061;BME280;45933;51.336;12.612;2022-09-12T09:33:46;100053.88;;;24.04;45.37
60061;BME280;45933;51.336;12.612;2022-09-12T09:38:56;100055.06;;;23.99;45.92
60061;BME280;45933;51.336;12.612;2022-09-12T09:42:05;100061.59;;;24.08;45.85
60061;BME280;45933;51.336;12.612;2022-09-12T09:44:32;100054.09;;;24.00;45.10
60061;BME280;45933;51.336;12.612;2022-09-12T09:46:59;100045.06;;;23.89;45.41
60061;BME280;45933;51.336;12.612;2022-09-12T09:49:28;100050.09;;;24.08;46.37
60061;BME280;45933;51.336;12.612;2022-09-12T09:51:55;100052.56;;;24.11;45.65
60061;BME280;45933;51.336;12.612;2022-09-12T09:54:38;100041.03;;;24.24;44.88
60061;BME280;45933;51.336;12.612;2022-09-12T10:00:32;100028.97;;;25.16;46.94
60061;BME280;45933;51.336;12.612;2022-09-12T10:05:53;100023.84;;;26.16;44.04
60061;BME280;45933;51.336;12.612;2022-09-12T10:08:27;100016.78;;;26.65;43.15
60061;BME280;45933;51.336;12.612;2022-09-12T10:13:56;100015.00;;;27.59;41.97
60061;BME280;45933;51.336;12.612;2022-09-12T10:16:23;100014.94;;;27.72;39.94
60061;BME280;45933;51.336;12.612;2022-09-12T10:18:51;100009.78;;;27.69;38.77
60061;BME280;45933;51.336;12.612;2022-09-12T10:26:38;100018.72;;;27.46;38.99
60061;BME280;45933;51.336;12.612;2022-09-12T10:29:22;100018.13;;;27.42;39.02
60061;BME280;45933;51.336;12.612;2022-09-12T10:31:52;100021.97;;;27.27;39.06
60061;BME280;45933;51.336;12.612;2022-09-12T10:34:30;100018.59;;;27.36;40.62
60061;BME280;45933;51.336;12.612;2022-09-12T10:37:06;100017.13;;;27.32;39.34
60061;BME280;45933;51.336;12.612;2022-09-12T10:39:34;100019.72;;;27.45;38.69
60061;BME280;45933;51.336;12.612;2022-09-12T10:42:01;100018.66;;;27.58;38.42
60061;BME280;45933;51.336;12.612;2022-09-12T10:44:32;100023.09;;;27.82;38.69
60061;BME280;45933;51.336;12.612;2022-09-12T10:47:00;100019.34;;;28.07;37.79
60061;BME280;45933;51.336;12.612;2022-09-12T10:49:43;100024.84;;;28.39;37.14
60061;BME280;45933;51.336;12.612;2022-09-12T10:52:22;100017.00;;;28.58;37.50
60061;BME280;45933;51.336;12.612;2022-09-12T10:54:51;100020.66;;;28.57;36.18
60061;BME280;45933;51.336;12.612;2022-09-12T11:00:01;100001.91;;;28.46;36.45
60061;BME280;45933;51.336;12.612;2022-09-12T11:02:47;100002.41;;;28.18;34.86
60061;BME280;45933;51.336;12.612;2022-09-12T11:07:58;100004.47;;;27.80;36.60
60061;BME280;45933;51.336;12.612;2022-09-12T11:35:06;99973.78;;;30.59;33.35
60061;BME280;45933;51.336;12.612;2022-09-12T11:40:47;99965.84;;;31.16;31.38
60061;BME280;45933;51.336;12.612;2022-09-12T11:43:44;99969.97;;;31.49;31.98
60061;BME280;45933;51.336;12.612;2022-09-12T11:46:23;99974.16;;;31.71;30.32
60061;BME280;45933;51.336;12.612;2022-09-12T11:51:52;99965.63;;;31.85;29.83
60061;BME280;45933;51.336;12.612;2022-09-12T11:54:28;99959.19;;;31.96;28.54
60061;BME280;45933;51.336;12.612;2022-09-12T11:58:01;99963.94;;;32.12;30.07
60061;BME280;45933;51.336;12.612;2022-09-12T12:00:14;99961.97;;;32.32;28.41
60061;BME280;45933;51.336;12.612;2022-09-12T12:05:42;99961.13;;;32.31;27.71
60061;BME280;45933;51.336;12.612;2022-09-12T12:08:14;99966.28;;;32.24;27.37
60061;BME280;45933;51.336;12.612;2022-09-12T12:10:47;99962.28;;;32.01;27.37
60061;BME280;45933;51.336;12.612;2022-09-12T12:15:48;99954.66;;;31.20;26.72
60061;BME280;45933;51.336;12.612;2022-09-12T12:18:22;99951.13;;;31.10;28.54
60061;BME280;45933;51.336;12.612;2022-09-12T12:20:49;99954.06;;;30.68;28.69
60061;BME280;45933;51.336;12.612;2022-09-12T12:23:30;99949.25;;;30.43;29.37
60061;BME280;45933;51.336;12.612;2022-09-12T12:26:01;99949.22;;;30.24;29.81
60061;BME280;45933;51.336;12.612;2022-09-12T12:31:08;99940.84;;;29.86;31.34
60061;BME280;45933;51.336;12.612;2022-09-12T12:36:06;99945.59;;;29.73;29.97
60061;BME280;45933;51.336;12.612;2022-09-12T12:38:36;99933.19;;;29.82;29.85
60061;BME280;45933;51.336;12.612;2022-09-12T12:43:47;99930.69;;;30.00;30.53
60061;BME280;45933;51.336;12.612;2022-09-12T12:46:17;99935.31;;;30.18;31.58
60061;BME280;45933;51.336;12.612;2022-09-12T12:48:48;99934.91;;;30.23;30.07
60061;BME280;45933;51.336;12.612;2022-09-12T12:53:48;99930.44;;;30.43;29.16
60061;BME280;45933;51.336;12.612;2022-09-12T12:59:13;99927.19;;;30.59;29.27
60061;BME280;45933;51.336;12.612;2022-09-12T13:01:45;99926.75;;;30.54;28.85
60061;BME280;45933;51.336;12.612;2022-09-12T13:04:15;99911.19;;;30.67;28.87
60061;BME280;45933;51.336;12.612;2022-09-12T13:06:54;99915.56;;;30.58;28.20
60061;BME280;45933;51.336;12.612;2022-09-12T13:09:30;99914.47;;;30.70;29.14
60061;BME280;45933;51.336;12.612;2022-09-12T13:12:00;99913.34;;;30.73;28.54
60061;BME280;45933;51.336;12.612;2022-09-12T13:17:14;99906.09;;;30.73;29.17
60061;BME280;45933;51.336;12.612;2022-09-12T13:19:42;99908.94;;;30.82;29.21
60061;BME280;45933;51.336;12.612;2022-09-12T13:22:08;99904.25;;;30.74;28.66
60061;BME280;45933;51.336;12.612;2022-09-12T13:24:48;99897.06;;;30.75;29.17
60061;BME280;45933;51.336;12.612;2022-09-12T13:27:25;99900.59;;;30.75;29.11
60061;BME280;45933;51.336;12.612;2022-09-12T13:30:08;99893.50;;;30.84;29.92
60061;BME280;45933;51.336;12.612;2022-09-12T13:32:36;99888.56;;;30.69;28.72
60061;BME280;45933;51.336;12.612;2022-09-12T13:35:12;99886.81;;;30.68;29.56
60061;BME280;45933;51.336;12.612;2022-09-12T13:37:47;99879.63;;;30.50;29.44
60061;BME280;45933;51.336;12.612;2022-09-12T13:40:26;99875.34;;;30.47;29.19
60061;BME280;45933;51.336;12.612;2022-09-12T13:43:22;99880.03;;;30.45;30.05
60061;BME280;45933;51.336;12.612;2022-09-12T13:45:52;99875.25;;;29.99;29.21
60061;BME280;45933;51.336;12.612;2022-09-12T13:48:21;99876.50;;;29.85;29.72
60061;BME280;45933;51.336;12.612;2022-09-12T13:50:57;99875.03;;;29.71;30.30
60061;BME280;45933;51.336;12.612;2022-09-12T13:53:27;99878.00;;;29.47;30.43
60061;BME280;45933;51.336;12.612;2022-09-12T13:55:58;99871.56;;;29.29;31.41
60061;BME280;45933;51.336;12.612;2022-09-12T13:58:30;99867.22;;;29.07;31.92
60061;BME280;45933;51.336;12.612;2022-09-12T14:03:39;99876.34;;;28.83;31.65
60061;BME280;45933;51.336;12.612;2022-09-12T14:06:23;99872.69;;;28.63;32.03
60061;BME280;45933;51.336;12.612;2022-09-12T14:08:50;99875.84;;;28.57;32.56
60061;BME280;45933;51.336;12.612;2022-09-12T14:11:23;99869.31;;;28.50;32.71
60061;BME280;45933;51.336;12.612;2022-09-12T14:13:50;99867.25;;;28.31;32.64
60061;BME280;45933;51.336;12.612;2022-09-12T14:16:17;99870.97;;;28.19;32.90
60061;BME280;45933;51.336;12.612;2022-09-12T14:18:46;99875.03;;;28.02;33.61
60061;BME280;45933;51.336;12.612;2022-09-12T14:21:32;99868.06;;;28.00;33.17
60061;BME280;45933;51.336;12.612;2022-09-12T14:23:58;99870.69;;;27.79;33.51
60061;BME280;45933;51.336;12.612;2022-09-12T14:26:27;99859.38;;;27.75;33.57
60061;BME280;45933;51.336;12.612;2022-09-12T14:28:59;99863.13;;;27.61;33.62
60061;BME280;45933;51.336;12.612;2022-09-12T14:31:30;99857.53;;;27.53;32.81
60061;BME280;45933;51.336;12.612;2022-09-12T14:36:54;99849.25;;;27.45;33.57
60061;BME280;45933;51.336;12.612;2022-09-12T14:39:31;99847.78;;;27.30;34.26
60061;BME280;45933;51.336;12.612;2022-09-12T14:42:04;99847.56;;;27.22;35.02
60061;BME280;45933;51.336;12.612;2022-09-12T14:44:32;99847.97;;;27.04;34.85
60061;BME280;45933;51.336;12.612;2022-09-12T14:47:12;99847.97;;;27.04;35.19
60061;BME280;45933;51.336;12.612;2022-09-12T14:49:38;99847.44;;;26.88;35.38
60061;BME280;45933;51.336;12.612;2022-09-12T14:52:05;99846.09;;;26.82;36.06
60061;BME280;45933;51.336;12.612;2022-09-12T14:57:03;99841.06;;;26.67;36.33
60061;BME280;45933;51.336;12.612;2022-09-12T14:59:36;99834.03;;;26.66;35.75
60061;BME280;45933;51.336;12.612;2022-09-12T15:07:33;99830.19;;;26.46;35.87
60061;BME280;45933;51.336;12.612;2022-09-12T15:10:02;99825.63;;;26.35;35.89
60061;BME280;45933;51.336;12.612;2022-09-12T15:12:28;99836.91;;;26.27;36.56
60061;BME280;45933;51.336;12.612;2022-09-12T15:14:59;99827.19;;;26.26;36.63